Thomson Dream — 9HA2381 — position and weather

sailwx.info

Track history (hours):
 
Tides and Currents Weather Stations Pressure Air Temp Water Temp Dewpoint Dewpoint Depression Visibility Wind Speed Wind Dir Waves Ship Positions

Thomson Dream

Last reported at 2017-Mar-25 01:33 UTC. Time now 2017-Mar-30 04:54 UTC.
Position N 20°22' W 087°05'.

Length 243 m; draft 7.6 m.

Type: Ship. MMSI: 248480975.

Date/timePositionNaut miles runAvg speedWind from/ knotsBaromVisibWave heightAir tempDewpointWater temp
2017-Mar-25 01:33N 20°22' W 087°05'9 8.4
2017-Mar-25 00:30N 20°29' W 086°59'0 0.0
2017-Mar-24 23:33N 20°29' W 086°59'0 0.0
2017-Mar-24 22:30N 20°29' W 086°59'0 0.0
2017-Mar-24 21:30N 20°29' W 086°59'0 0.0
2017-Mar-24 20:34N 20°29' W 086°59'0 0.0
2017-Mar-24 19:34N 20°29' W 086°59'0 0.0
2017-Mar-24 18:34N 20°29' W 086°59'0 0.0
2017-Mar-24 17:34N 20°29' W 086°59'0 0.0
2017-Mar-24 16:33N 20°29' W 086°59'0 0.0
2017-Mar-24 15:33N 20°29' W 086°59'0 0.0
2017-Mar-24 14:34N 20°29' W 086°59'0 0.0
2017-Mar-24 13:31N 20°29' W 086°59'0 0.0
2017-Mar-24 12:30N 20°29' W 086°59'0 0.0
2017-Mar-24 11:33N 20°29' W 086°59'6 5.9
2017-Mar-24 10:34N 20°27' W 087°05'  
2017-Mar-20 01:34N 20°32' W 086°58'1 1.0
2017-Mar-20 00:31N 20°31' W 086°57'0 0.0
2017-Mar-19 23:33N 20°31' W 086°57'0 0.0
2017-Mar-19 22:33N 20°31' W 086°57'0 0.0
2017-Mar-19 21:33N 20°31' W 086°57'0 0.0
2017-Mar-19 20:33N 20°31' W 086°57'0 0.0
2017-Mar-19 19:34N 20°31' W 086°57'0 0.0
2017-Mar-19 18:31N 20°31' W 086°57'0 0.0
2017-Mar-19 17:33N 20°31' W 086°57'0 0.0
2017-Mar-19 16:33N 20°31' W 086°57'0 0.0
2017-Mar-19 15:24N 20°31' W 086°57'0 0.0
2017-Mar-19 14:33N 20°31' W 086°57'0 0.0
2017-Mar-19 13:33N 20°31' W 086°57'7 7.2
2017-Mar-19 12:33N 20°37' W 086°54'  
Track history (hours):
 
Tides and Currents Weather Stations Pressure Air Temp Water Temp Dewpoint Dewpoint Depression Visibility Wind Speed Wind Dir Waves Ship Positions

Thomson Dream

Last reported at 2017-Mar-25 01:33 UTC. Time now 2017-Mar-30 04:54 UTC.
Position N 20°22' W 087°05'.

Length 243 m; draft 7.6 m.

Type: Ship. MMSI: 248480975.

Date/timePositionNaut miles runAvg speedWind from/ knotsBaromVisibWave heightAir tempDewpointWater temp
2017-Mar-25 01:33N 20°22' W 087°05'9 8.4
2017-Mar-25 00:30N 20°29' W 086°59'0 0.0
2017-Mar-24 23:33N 20°29' W 086°59'0 0.0
2017-Mar-24 22:30N 20°29' W 086°59'0 0.0
2017-Mar-24 21:30N 20°29' W 086°59'0 0.0
2017-Mar-24 20:34N 20°29' W 086°59'0 0.0
2017-Mar-24 19:34N 20°29' W 086°59'0 0.0
2017-Mar-24 18:34N 20°29' W 086°59'0 0.0
2017-Mar-24 17:34N 20°29' W 086°59'0 0.0
2017-Mar-24 16:33N 20°29' W 086°59'0 0.0
2017-Mar-24 15:33N 20°29' W 086°59'0 0.0
2017-Mar-24 14:34N 20°29' W 086°59'0 0.0
2017-Mar-24 13:31N 20°29' W 086°59'0 0.0
2017-Mar-24 12:30N 20°29' W 086°59'0 0.0
2017-Mar-24 11:33N 20°29' W 086°59'6 5.9
2017-Mar-24 10:34N 20°27' W 087°05'  
2017-Mar-20 01:34N 20°32' W 086°58'1 1.0
2017-Mar-20 00:31N 20°31' W 086°57'0 0.0
2017-Mar-19 23:33N 20°31' W 086°57'0 0.0
2017-Mar-19 22:33N 20°31' W 086°57'0 0.0
2017-Mar-19 21:33N 20°31' W 086°57'0 0.0
2017-Mar-19 20:33N 20°31' W 086°57'0 0.0
2017-Mar-19 19:34N 20°31' W 086°57'0 0.0
2017-Mar-19 18:31N 20°31' W 086°57'0 0.0
2017-Mar-19 17:33N 20°31' W 086°57'0 0.0
2017-Mar-19 16:33N 20°31' W 086°57'0 0.0
2017-Mar-19 15:24N 20°31' W 086°57'0 0.0
2017-Mar-19 14:33N 20°31' W 086°57'0 0.0
2017-Mar-19 13:33N 20°31' W 086°57'7 7.2
2017-Mar-19 12:33N 20°37' W 086°54'  

Dump ship's entire track history